Hlavní strana
METAR-TAF:

METAR-TAF

Letiště :

Mezinárodní letiště Kchun-ming Čchang-šuej

Kchun-ming, Čína

zeměpisná šířka: 25-01N, zeměpisná délka: 102-41E, výška: 1892 m

Aktuální stav počasí

Zpráva byla vytvořena před 1 hodinou a 1 minutami, v 22:00 UTC
Jihojihozápadní vítr 8 kt
Teplota 18°C
Vlhkost vzduchu 100%
Tlak 1013 hPa
Viditelnost 10 km a více
Polojasno ve výšce 2300 ft
Polojasno ve výšce 4000 ft

METAR: ZPPP 182200Z 21004MPS 9999 SCT023 SCT040 18/18 Q1013 NOSIG

Čas: 07:01 (23:01 UTC)

Předpověď počasí

Zpráva byla vytvořena před 9 hodinami a 48 minutami, v 13:13 UTC
Předpověď platná od 18 v 18 UTC do 19 v 18 UTC
Jihozápadní vítr 12 kt
Viditelnost 10 km a více
Polojasno ve výšce 2600 ft

TAF: ZPPP 181313Z 1818/1918 22006MPS 9999 SCT026 TX26/1908Z TN15/1823Z

Stav a předpovědi počasí z více než 4 000 letišť (zprávy METAR a TAF).

Červené a žluté tečky na mapě představují dostupné meteorologické stanice.

Když kurzor umístíte na tečku, zobrazí se název stanice.

Pak kliknutím zobrazíte stav a předpověď počasí.

Chcete-li změnit mapu, kliknutím na zelené tlačítko se znaménkem +mapu přiblížíte, kliknutím na zelené tlačítko se znaménkem – mapu oddálíte a kliknutím na zelené šipky přejdete na sousední mapy.


METAR-TAF: